createdAt,value
2018-08-19T00:02:17.712Z,102258.41
2018-08-19T00:05:04.953Z,102258.55
2018-08-19T00:07:35.130Z,102258.09
2018-08-19T00:10:06.784Z,102265.58
2018-08-19T00:12:43.835Z,102262.62
2018-08-19T00:15:13.968Z,102260.65
2018-08-19T00:17:43.578Z,102262.61
2018-08-19T00:20:14.361Z,102266.02
2018-08-19T00:22:44.192Z,102261.31
2018-08-19T00:25:29.751Z,102258.93
2018-08-19T00:27:59.133Z,102261.94
2018-08-19T00:30:29.560Z,102246.27
2018-08-19T00:33:00.394Z,102248.20
2018-08-19T00:35:29.503Z,102243.03
2018-08-19T00:37:58.816Z,102250.61
2018-08-19T00:40:27.541Z,102243.18
2018-08-19T00:42:56.740Z,102242.87
2018-08-19T00:45:25.916Z,102248.52
2018-08-19T00:47:54.605Z,102246.58
2018-08-19T00:50:24.430Z,102244.06
2018-08-19T00:52:53.767Z,102249.70
2018-08-19T00:55:23.016Z,102245.78
2018-08-19T00:57:57.552Z,102244.71
2018-08-19T01:00:28.869Z,102241.78
2018-08-19T01:02:57.541Z,102238.94
2018-08-19T01:05:26.020Z,102237.94
2018-08-19T01:07:54.843Z,102239.27
2018-08-19T01:10:27.002Z,102243.82
2018-08-19T01:12:55.602Z,102242.36
2018-08-19T01:15:23.893Z,102241.26
2018-08-19T01:17:52.823Z,102237.02
2018-08-19T01:20:22.605Z,102236.38
2018-08-19T01:22:52.559Z,102235.31
2018-08-19T01:25:21.406Z,102235.88
2018-08-19T01:27:51.409Z,102238.03
2018-08-19T01:30:24.363Z,102239.97
2018-08-19T01:32:55.303Z,102239.03
2018-08-19T01:35:30.762Z,102243.22
2018-08-19T01:37:59.577Z,102241.29
2018-08-19T01:40:29.891Z,102240.18
2018-08-19T01:42:58.960Z,102237.31
2018-08-19T01:45:27.599Z,102239.13
2018-08-19T01:47:56.376Z,102231.45
2018-08-19T01:50:27.797Z,102235.31
2018-08-19T01:52:56.617Z,102225.73
2018-08-19T01:55:25.372Z,102230.55
2018-08-19T01:57:56.750Z,102227.97
2018-08-19T02:00:26.272Z,102232.91
2018-08-19T02:03:02.878Z,102233.61
2018-08-19T02:05:31.774Z,102235.60
2018-08-19T02:08:03.708Z,102239.24
2018-08-19T02:10:34.644Z,102238.09
2018-08-19T02:13:03.567Z,102233.09
2018-08-19T02:15:33.303Z,102227.61
2018-08-19T02:18:04.054Z,102224.69
2018-08-19T02:20:38.525Z,102222.41
2018-08-19T02:23:08.999Z,102221.86
2018-08-19T02:25:43.852Z,102220.05
2018-08-19T02:28:14.992Z,102231.77
2018-08-19T02:31:02.121Z,102225.44
2018-08-19T02:33:34.352Z,102220.48
2018-08-19T02:36:06.354Z,102220.17
2018-08-19T02:38:36.272Z,102215.91
2018-08-19T02:41:06.528Z,102211.50
2018-08-19T02:43:44.262Z,102213.02
2018-08-19T02:46:12.939Z,102212.02
2018-08-19T02:48:49.329Z,102207.81
2018-08-19T02:51:18.946Z,102207.69
2018-08-19T02:53:49.578Z,102206.37
2018-08-19T02:56:19.098Z,102205.53
2018-08-19T02:58:48.405Z,102206.38
2018-08-19T03:01:18.192Z,102203.72
2018-08-19T03:03:46.877Z,102194.59
2018-08-19T03:06:16.043Z,102196.91
2018-08-19T03:08:50.467Z,102194.98
2018-08-19T03:11:21.128Z,102194.59
2018-08-19T03:13:49.763Z,102198.29
2018-08-19T03:16:18.981Z,102195.04
2018-08-19T03:18:52.514Z,102193.37
2018-08-19T03:21:22.167Z,102191.05
2018-08-19T03:23:52.791Z,102191.41
2018-08-19T03:26:21.469Z,102195.44
2018-08-19T03:28:50.247Z,102187.33
2018-08-19T03:31:18.943Z,102188.40
2018-08-19T03:33:48.487Z,102185.66
2018-08-19T03:36:17.769Z,102147.91
2018-08-19T03:38:46.312Z,102187.55
2018-08-19T03:41:15.133Z,102186.84
2018-08-19T03:43:51.260Z,102185.97
2018-08-19T03:46:20.231Z,102188.16
2018-08-19T03:48:50.451Z,102185.69
2018-08-19T03:51:19.707Z,102186.91
2018-08-19T03:53:48.332Z,102190.22
2018-08-19T03:56:22.577Z,102188.16
2018-08-19T03:58:54.388Z,102187.85
2018-08-19T04:01:41.153Z,102184.74
2018-08-19T04:04:10.945Z,102181.34
2018-08-19T04:06:40.713Z,102178.11
2018-08-19T04:09:09.435Z,102176.70
2018-08-19T04:11:38.988Z,102180.88
2018-08-19T04:14:28.682Z,102187.70
2018-08-19T04:16:59.157Z,102185.83
2018-08-19T04:19:28.470Z,102185.70
2018-08-19T04:22:01.195Z,102194.04
2018-08-19T04:24:31.012Z,102188.06
2018-08-19T04:27:09.288Z,102188.64
2018-08-19T04:29:39.194Z,102184.47
2018-08-19T04:32:16.830Z,102189.87
2018-08-19T04:34:46.163Z,102188.55
2018-08-19T04:37:15.966Z,102182.89
2018-08-19T04:39:45.676Z,102192.16
2018-08-19T04:42:14.527Z,102193.19
2018-08-19T04:44:44.068Z,102187.44
2018-08-19T04:47:31.648Z,102184.09
2018-08-19T04:50:00.663Z,102189.89
2018-08-19T04:52:31.628Z,102188.76
2018-08-19T04:55:01.484Z,102181.17
2018-08-19T04:57:30.264Z,102186.47
2018-08-19T04:59:59.026Z,102187.89
2018-08-19T05:02:28.561Z,102185.17
2018-08-19T05:04:57.776Z,102182.89
2018-08-19T05:07:26.612Z,102184.85
2018-08-19T05:09:55.411Z,102179.94
2018-08-19T05:12:24.069Z,102169.77
2018-08-19T05:14:52.868Z,102164.02
2018-08-19T05:17:21.673Z,102172.73
2018-08-19T05:19:52.791Z,102174.55
2018-08-19T05:22:21.667Z,102183.06
2018-08-19T05:24:50.627Z,102178.03
2018-08-19T05:27:19.340Z,102176.13
2018-08-19T05:29:48.201Z,102186.18
2018-08-19T05:32:16.907Z,102178.77
2018-08-19T05:34:45.558Z,102178.77
2018-08-19T05:37:14.318Z,102178.97
2018-08-19T05:39:48.706Z,102186.37
2018-08-19T05:42:18.097Z,102179.27
2018-08-19T05:44:46.920Z,102183.03
2018-08-19T05:47:18.728Z,102177.53
2018-08-19T05:49:48.563Z,102176.98
2018-08-19T05:52:20.413Z,102181.03
2018-08-19T05:54:58.529Z,102178.77
2018-08-19T05:57:30.538Z,102176.48
2018-08-19T06:00:00.448Z,102180.66
2018-08-19T06:02:36.971Z,102171.41
2018-08-19T06:05:05.689Z,102172.52
2018-08-19T06:07:35.085Z,102169.37
2018-08-19T06:10:04.342Z,102173.94
2018-08-19T06:12:33.828Z,102173.40
2018-08-19T06:15:02.680Z,102174.43
2018-08-19T06:17:32.070Z,102169.95
2018-08-19T06:20:01.400Z,102174.48
2018-08-19T06:22:36.315Z,102177.25
2018-08-19T06:25:08.011Z,102173.48
2018-08-19T06:27:49.180Z,102170.62
2018-08-19T06:30:22.546Z,102168.59
2018-08-19T06:35:32.958Z,102164.70
2018-08-19T06:38:02.508Z,102166.75
2018-08-19T06:40:32.580Z,102167.47
2018-08-19T06:43:05.536Z,102160.56
2018-08-19T06:45:35.686Z,102171.96
2018-08-19T06:48:04.828Z,102165.13
2018-08-19T06:50:36.040Z,102158.42
2018-08-19T06:53:04.946Z,102156.47
2018-08-19T06:55:33.976Z,102162.37
2018-08-19T06:58:02.844Z,102161.25
2018-08-19T07:00:33.888Z,102161.69
2018-08-19T07:03:07.043Z,102161.80
2018-08-19T07:05:37.109Z,102157.18
2018-08-19T07:08:09.438Z,102159.19
2018-08-19T07:10:40.928Z,102163.34
2018-08-19T07:13:13.179Z,102162.58
2018-08-19T07:15:43.000Z,102171.23
2018-08-19T07:18:13.953Z,102162.17
2018-08-19T07:20:44.083Z,102172.39
2018-08-19T07:23:13.174Z,102167.85
2018-08-19T07:25:43.032Z,102173.36
2018-08-19T07:28:12.901Z,102168.32
2018-08-19T07:30:41.995Z,102162.47
2018-08-19T07:33:12.654Z,102175.87
2018-08-19T07:35:41.899Z,102164.11
2018-08-19T07:38:10.891Z,102168.72
2018-08-19T07:40:39.475Z,102157.39
2018-08-19T07:43:08.470Z,102169.05
2018-08-19T07:45:38.845Z,102160.56
2018-08-19T07:48:08.454Z,102161.06
2018-08-19T07:50:40.260Z,102156.45
2018-08-19T07:53:11.625Z,102149.95
2018-08-19T07:55:42.317Z,102152.06
2018-08-19T07:58:11.615Z,102150.51
2018-08-19T08:00:41.633Z,102156.92
2018-08-19T08:03:11.161Z,102152.78
2018-08-19T08:05:46.785Z,102161.07
2018-08-19T08:08:18.071Z,102161.56
2018-08-19T08:10:47.589Z,102170.89
2018-08-19T08:13:17.807Z,102166.63
2018-08-19T08:15:55.175Z,102153.03
2018-08-19T08:18:24.677Z,102162.06
2018-08-19T08:21:01.566Z,102158.83
2018-08-19T08:23:30.633Z,102158.46
2018-08-19T08:25:59.534Z,102161.64
2018-08-19T08:28:29.117Z,102163.05
2018-08-19T08:30:59.618Z,102153.72
2018-08-19T08:33:28.939Z,102157.39
2018-08-19T08:35:58.233Z,102161.66
2018-08-19T08:38:27.032Z,102160.16
2018-08-19T08:40:56.595Z,102156.51
2018-08-19T08:43:25.430Z,102154.52
2018-08-19T08:45:58.617Z,102152.34
2018-08-19T08:48:29.663Z,102151.45
2018-08-19T08:50:58.939Z,102152.28
2018-08-19T08:53:39.721Z,102150.09
2018-08-19T08:56:10.832Z,102151.69
2018-08-19T08:58:40.949Z,102143.11
2018-08-19T09:01:11.521Z,102139.90
2018-08-19T09:03:41.368Z,102134.77
2018-08-19T09:06:18.587Z,102136.55
2018-08-19T09:08:48.441Z,102126.31
2018-08-19T09:11:18.775Z,102134.34
2018-08-19T09:13:48.992Z,102136.27
2018-08-19T09:16:18.756Z,102132.72
2018-08-19T09:18:49.778Z,102132.76
2018-08-19T09:21:19.272Z,102135.88
2018-08-19T09:23:49.674Z,102127.25
2018-08-19T09:26:18.441Z,102127.96
2018-08-19T09:28:49.385Z,102119.37
2018-08-19T09:31:20.462Z,102123.83
2018-08-19T09:33:50.061Z,102126.15
2018-08-19T09:36:22.136Z,102115.94
2018-08-19T09:38:52.861Z,102119.45
2018-08-19T09:41:23.508Z,102118.45
2018-08-19T09:43:53.607Z,102124.42
2018-08-19T09:46:25.914Z,102123.36
2018-08-19T09:48:55.096Z,102122.88
2018-08-19T09:51:26.302Z,102127.28
2018-08-19T09:53:57.475Z,102115.55
2018-08-19T09:56:32.453Z,102118.84
2018-08-19T09:59:02.899Z,102116.16
2018-08-19T10:01:38.603Z,102065.05
2018-08-19T10:04:25.232Z,102117.33
2018-08-19T10:07:06.704Z,102112.84
2018-08-19T10:09:36.656Z,102111.49
2018-08-19T10:12:08.953Z,102109.25
2018-08-19T10:14:37.540Z,102108.39
2018-08-19T10:17:06.162Z,102111.95
2018-08-19T10:19:34.888Z,102107.44
2018-08-19T10:22:03.814Z,102112.92
2018-08-19T10:24:33.338Z,102106.90
2018-08-19T10:27:06.445Z,102102.19
2018-08-19T10:29:35.477Z,102106.58
2018-08-19T10:32:04.685Z,102101.33
2018-08-19T10:34:35.100Z,102102.55
2018-08-19T10:37:05.284Z,102102.16
2018-08-19T10:39:33.813Z,102103.74
2018-08-19T10:42:19.429Z,102098.53
2018-08-19T10:44:51.413Z,102102.19
2018-08-19T10:47:20.494Z,102095.46
2018-08-19T10:49:59.314Z,102096.80
2018-08-19T10:52:29.238Z,102090.98
2018-08-19T10:54:59.232Z,102092.48
2018-08-19T10:57:27.907Z,102087.25
2018-08-19T10:59:57.724Z,102082.70
2018-08-19T11:02:26.341Z,102081.37
2018-08-19T11:04:58.479Z,102071.61
2018-08-19T11:07:27.346Z,102065.78
2018-08-19T11:10:26.316Z,102061.78
2018-08-19T11:12:58.324Z,102069.61
2018-08-19T11:16:00.143Z,102064.97
2018-08-19T11:18:35.095Z,102069.02
2018-08-19T11:21:10.036Z,102065.80
2018-08-19T11:23:42.443Z,102070.32
2018-08-19T11:26:11.495Z,102059.52
2018-08-19T11:28:44.892Z,102064.23
2018-08-19T11:31:22.000Z,102065.42
2018-08-19T11:33:51.351Z,102057.36
2018-08-19T11:36:21.768Z,102057.25
2018-08-19T11:38:55.085Z,102045.68
2018-08-19T11:41:23.826Z,102041.41
2018-08-19T11:43:52.520Z,102045.54
2018-08-19T11:46:21.430Z,102036.81
2018-08-19T11:48:55.394Z,102049.30
2018-08-19T11:51:41.659Z,102041.44
2018-08-19T11:54:13.189Z,102035.92
2018-08-19T11:57:18.957Z,102038.04
2018-08-19T11:59:48.444Z,102036.73
2018-08-19T12:02:19.071Z,102045.88
2018-08-19T12:04:47.936Z,102036.22
2018-08-19T12:07:17.096Z,102032.58
2018-08-19T12:09:53.314Z,102036.21
2018-08-19T12:12:44.500Z,102028.98
2018-08-19T12:15:12.992Z,102031.45
2018-08-19T12:17:45.730Z,102026.20
2018-08-19T12:20:22.709Z,102021.20
2018-08-19T12:22:52.873Z,102019.28
2018-08-19T12:25:21.513Z,102021.16
2018-08-19T12:27:50.590Z,102012.20
2018-08-19T12:30:19.807Z,102018.31
2018-08-19T12:32:49.238Z,102016.60
2018-08-19T12:35:19.454Z,102014.66
2018-08-19T12:37:48.017Z,102014.36
2018-08-19T12:40:17.667Z,102012.32
2018-08-19T12:42:52.387Z,102004.35
2018-08-19T12:45:22.384Z,102011.03
2018-08-19T12:47:51.569Z,102004.41
2018-08-19T12:50:20.360Z,102012.52
2018-08-19T12:52:51.093Z,102001.31
2018-08-19T12:55:21.777Z,102006.95
2018-08-19T12:57:56.805Z,102008.52
2018-08-19T13:00:28.077Z,102004.80
2018-08-19T13:02:57.783Z,101994.49
2018-08-19T13:05:28.093Z,102001.80
2018-08-19T13:07:57.340Z,101998.80
2018-08-19T13:10:36.508Z,102001.09
2018-08-19T13:13:06.413Z,101984.09
2018-08-19T13:15:35.078Z,101990.38
2018-08-19T13:18:04.715Z,101985.86
2018-08-19T13:23:13.697Z,101980.38
2018-08-19T13:25:42.490Z,101978.33
2018-08-19T13:28:11.808Z,101978.77
2018-08-19T13:30:40.825Z,101973.16
2018-08-19T13:33:10.389Z,101972.20
2018-08-19T13:35:40.021Z,101984.52
2018-08-19T13:38:08.998Z,101977.41
2018-08-19T13:40:37.985Z,101967.02
2018-08-19T13:43:07.396Z,101972.04
2018-08-19T13:45:36.532Z,101962.12
2018-08-19T13:48:06.644Z,101956.68
2018-08-19T13:50:36.052Z,101951.98
2018-08-19T13:53:06.735Z,101962.47
2018-08-19T13:55:36.536Z,101948.77
2018-08-19T13:58:06.704Z,101948.94
2018-08-19T14:00:36.277Z,101952.02
2018-08-19T14:03:06.339Z,101943.39
2018-08-19T14:05:35.484Z,101952.13
2018-08-19T14:08:04.725Z,101937.52
2018-08-19T14:10:33.973Z,101951.14
2018-08-19T14:13:05.443Z,101949.73
2018-08-19T14:15:34.369Z,101946.22
2018-08-19T14:18:05.072Z,101943.16
2018-08-19T14:20:35.263Z,101943.09
2018-08-19T14:23:06.433Z,101941.03
2018-08-19T14:25:35.933Z,101939.14
2018-08-19T14:28:07.508Z,101932.35
2018-08-19T14:30:37.773Z,101926.14
2018-08-19T14:33:07.683Z,101930.03
2018-08-19T14:35:39.189Z,101940.75
2018-08-19T14:38:10.028Z,101935.34
2018-08-19T14:40:41.651Z,101938.78
2018-08-19T14:43:12.275Z,101937.73
2018-08-19T14:45:41.510Z,101943.52
2018-08-19T14:48:12.215Z,101934.20
2018-08-19T14:50:44.641Z,101931.41
2018-08-19T14:53:17.678Z,101929.61
2018-08-19T14:55:47.327Z,101932.14
2018-08-19T14:58:22.039Z,101928.03
2018-08-19T15:00:52.967Z,101922.48
2018-08-19T15:03:24.905Z,101928.05
2018-08-19T15:06:04.367Z,101932.05
2018-08-19T15:08:43.258Z,101924.67
2018-08-19T15:11:14.109Z,101924.75
2018-08-19T15:13:45.819Z,101924.05
2018-08-19T15:16:16.016Z,101918.80
2018-08-19T15:18:48.189Z,101916.84
2018-08-19T15:21:18.404Z,101920.25
2018-08-19T15:23:47.589Z,101917.13
2018-08-19T15:26:16.740Z,101922.63
2018-08-19T15:28:48.971Z,101923.15
2018-08-19T15:31:24.340Z,101923.17
2018-08-19T15:33:54.183Z,101915.50
2018-08-19T15:36:24.407Z,101915.73
2018-08-19T15:38:53.553Z,101920.40
2018-08-19T15:41:22.883Z,101925.53
2018-08-19T15:43:55.915Z,101916.39
2018-08-19T15:46:24.755Z,101923.67
2018-08-19T15:48:55.266Z,101913.05
2018-08-19T15:51:24.165Z,101911.74
2018-08-19T15:53:52.713Z,101925.41
2018-08-19T15:56:21.846Z,101918.02
2018-08-19T15:58:51.197Z,101915.11
2018-08-19T16:01:29.096Z,101915.02
2018-08-19T16:04:06.405Z,101912.38
2018-08-19T16:06:35.632Z,101910.92
2018-08-19T16:09:09.312Z,101910.41
2018-08-19T16:11:39.868Z,101904.63
2018-08-19T16:14:17.152Z,101907.80
2018-08-19T16:16:46.373Z,101902.53
2018-08-19T16:19:15.320Z,101907.14
2018-08-19T16:21:49.360Z,101910.38
2018-08-19T16:24:17.952Z,101913.64
2018-08-19T16:26:46.870Z,101909.91
2018-08-19T16:29:15.366Z,101899.41
2018-08-19T16:31:44.241Z,101905.42
2018-08-19T16:34:12.873Z,101903.45
2018-08-19T16:36:42.743Z,101900.20
2018-08-19T16:39:13.595Z,101891.66
2018-08-19T16:41:42.777Z,101903.57
2018-08-19T16:44:11.679Z,101896.35
2018-08-19T16:46:40.713Z,101903.36
2018-08-19T16:49:09.756Z,101898.16
2018-08-19T16:51:38.752Z,101894.58
2018-08-19T16:54:07.759Z,101899.45
2018-08-19T16:56:36.912Z,101898.42
2018-08-19T16:59:05.638Z,101898.66
2018-08-19T17:01:34.190Z,101903.46
2018-08-19T17:04:02.567Z,101904.59
2018-08-19T17:06:31.667Z,101910.28
2018-08-19T17:09:00.332Z,101915.84
2018-08-19T17:11:28.965Z,101914.07
2018-08-19T17:13:58.245Z,101912.94
2018-08-19T17:16:27.396Z,101919.18
2018-08-19T17:18:56.183Z,101918.05
2018-08-19T17:21:25.522Z,101920.91
2018-08-19T17:23:55.126Z,101915.47
2018-08-19T17:26:24.512Z,101922.55
2018-08-19T17:28:53.305Z,101919.62
2018-08-19T17:31:21.948Z,101922.12
2018-08-19T17:33:50.945Z,101920.84
2018-08-19T17:36:26.895Z,101916.61
2018-08-19T17:38:56.050Z,101913.75
2018-08-19T17:41:25.432Z,101914.99
2018-08-19T17:43:54.393Z,101921.63
2018-08-19T17:46:23.058Z,101925.20
2018-08-19T17:48:53.596Z,101920.61
2018-08-19T17:51:35.341Z,101925.73
2018-08-19T17:54:12.494Z,101921.24
2018-08-19T17:56:41.145Z,101922.54
2018-08-19T17:59:09.976Z,101920.98
2018-08-19T18:01:40.164Z,101923.10
2018-08-19T18:04:10.260Z,101924.91
2018-08-19T18:06:40.329Z,101928.09
2018-08-19T18:11:42.317Z,101919.41
2018-08-19T18:14:11.748Z,101912.47
2018-08-19T18:16:40.420Z,101913.63
2018-08-19T18:19:10.148Z,101911.13
2018-08-19T18:21:40.055Z,101919.80
2018-08-19T18:24:09.331Z,101920.53
2018-08-19T18:26:38.464Z,101912.77
2018-08-19T18:29:07.881Z,101913.39
2018-08-19T18:31:37.124Z,101920.69
2018-08-19T18:34:09.129Z,101920.03
2018-08-19T18:36:38.959Z,101913.84
2018-08-19T18:39:10.450Z,101916.72
2018-08-19T18:41:45.336Z,101913.16
2018-08-19T18:44:15.721Z,101918.29
2018-08-19T18:46:44.261Z,101908.80
2018-08-19T18:49:15.459Z,101911.59
2018-08-19T18:51:50.465Z,101910.73
2018-08-19T18:54:30.276Z,101907.86
2018-08-19T18:57:09.176Z,101901.63
2018-08-19T18:59:43.916Z,101903.94
2018-08-19T19:02:13.791Z,101905.56
2018-08-19T19:04:43.054Z,101901.81
2018-08-19T19:07:14.761Z,101901.05
2018-08-19T19:09:49.336Z,101910.06
2018-08-19T19:12:22.246Z,101907.78
2018-08-19T19:14:51.453Z,101910.20
2018-08-19T19:17:22.369Z,101905.10
2018-08-19T19:19:52.785Z,101909.23
2018-08-19T19:22:23.676Z,101910.09
2018-08-19T19:24:52.986Z,101899.80
2018-08-19T19:27:23.353Z,101907.76
2018-08-19T19:29:58.169Z,101904.87
2018-08-19T19:32:27.593Z,101901.10
2018-08-19T19:35:11.867Z,101895.79
2018-08-19T19:37:46.556Z,101899.80
2018-08-19T19:40:17.737Z,101903.03
2018-08-19T19:42:47.286Z,101893.00
2018-08-19T19:45:17.150Z,101886.70
2018-08-19T19:47:45.992Z,101891.30
2018-08-19T19:52:54.315Z,101893.59
2018-08-19T19:55:24.317Z,101898.64
2018-08-19T19:57:54.056Z,101895.14
2018-08-19T20:00:23.882Z,101901.30
2018-08-19T20:02:54.546Z,101903.38
2018-08-19T20:05:25.761Z,101908.16
2018-08-19T20:07:55.671Z,101905.13
2018-08-19T20:10:26.961Z,101909.48
2018-08-19T20:12:56.896Z,101911.52
2018-08-19T20:15:27.252Z,101914.09
2018-08-19T20:17:58.581Z,101917.95
2018-08-19T20:20:27.418Z,101919.03
2018-08-19T20:22:57.467Z,101922.28
2018-08-19T20:25:27.399Z,101920.09
2018-08-19T20:28:01.549Z,101916.48
2018-08-19T20:30:31.344Z,101913.93
2018-08-19T20:33:00.884Z,101920.25
2018-08-19T20:35:30.732Z,101916.23
2018-08-19T20:38:01.382Z,101921.68
2018-08-19T20:40:32.310Z,101924.34
2018-08-19T20:43:03.648Z,101920.45
2018-08-19T20:45:33.580Z,101926.41
2018-08-19T20:48:04.451Z,101916.25
2018-08-19T20:50:33.982Z,101925.45
2018-08-19T20:53:04.435Z,101923.51
2018-08-19T20:55:33.878Z,101929.83
2018-08-19T20:58:04.199Z,101932.86
2018-08-19T21:00:33.873Z,101924.47
2018-08-19T21:03:04.774Z,101924.44
2018-08-19T21:05:34.847Z,101920.60
2018-08-19T21:08:17.042Z,101924.38
2018-08-19T21:10:48.844Z,101923.88
2018-08-19T21:13:19.539Z,101924.72
2018-08-19T21:15:52.533Z,101923.27
2018-08-19T21:18:21.194Z,101927.14
2018-08-19T21:20:50.637Z,101931.64
2018-08-19T21:23:19.407Z,101930.66
2018-08-19T21:25:54.147Z,101930.05
2018-08-19T21:28:22.761Z,101931.34
2018-08-19T21:30:52.364Z,101932.59
2018-08-19T21:33:23.302Z,101934.78
2018-08-19T21:35:55.184Z,101927.47
2018-08-19T21:38:23.823Z,101928.72
2018-08-19T21:40:55.461Z,101925.80
2018-08-19T21:43:30.191Z,101929.14
2018-08-19T21:46:01.427Z,101928.87
2018-08-19T21:48:31.105Z,101929.95
2018-08-19T21:50:59.848Z,101931.66
2018-08-19T21:53:30.265Z,101931.66
2018-08-19T21:55:59.485Z,101929.88
2018-08-19T21:58:28.384Z,101933.56
2018-08-19T22:00:59.079Z,101937.28
2018-08-19T22:03:33.611Z,101938.73
2018-08-19T22:06:05.861Z,101944.45
2018-08-19T22:08:34.801Z,101941.36
2018-08-19T22:11:03.964Z,101938.20
2018-08-19T22:13:33.457Z,101938.95
2018-08-19T22:16:04.343Z,101933.26
2018-08-19T22:18:33.280Z,101938.24
2018-08-19T22:21:24.165Z,101935.83
2018-08-19T22:23:56.119Z,101939.90
2018-08-19T22:26:24.700Z,101938.49
2018-08-19T22:29:14.760Z,101936.23
2018-08-19T22:31:44.290Z,101945.53
2018-08-19T22:34:14.586Z,101944.36
2018-08-19T22:36:44.449Z,101943.98
2018-08-19T22:39:18.220Z,101946.02
2018-08-19T22:41:51.804Z,101947.39
2018-08-19T22:44:20.630Z,101947.05
2018-08-19T22:46:51.434Z,101947.23
2018-08-19T22:49:20.219Z,101950.14
2018-08-19T22:51:49.030Z,101950.27
2018-08-19T22:54:17.831Z,101957.76
2018-08-19T22:56:48.146Z,101960.13
2018-08-19T22:59:16.912Z,101952.02
2018-08-19T23:01:48.629Z,101960.25
2018-08-19T23:04:17.506Z,101949.97
2018-08-19T23:06:47.187Z,101949.59
2018-08-19T23:09:18.059Z,101943.82
2018-08-19T23:11:48.374Z,101937.45
2018-08-19T23:14:34.243Z,101936.12
2018-08-19T23:17:06.298Z,101943.48
2018-08-19T23:19:36.011Z,101944.69
2018-08-19T23:22:04.652Z,101942.48
2018-08-19T23:24:33.647Z,101944.94
2018-08-19T23:27:02.874Z,101933.20
2018-08-19T23:29:31.446Z,101935.03
2018-08-19T23:32:00.344Z,101937.33
2018-08-19T23:34:29.388Z,101927.63
2018-08-19T23:36:58.533Z,101925.55
2018-08-19T23:39:27.254Z,101931.46
2018-08-19T23:41:57.208Z,101926.97
2018-08-19T23:44:26.228Z,101920.84
2018-08-19T23:46:56.560Z,101922.98
2018-08-19T23:49:25.563Z,101916.86
2018-08-19T23:51:54.202Z,101910.63
2018-08-19T23:54:22.785Z,101912.78
2018-08-19T23:56:51.600Z,101916.33
2018-08-19T23:59:28.037Z,101906.33
